createdAt,value
2022-09-05T00:02:36.217Z,4.82
2022-09-05T00:05:35.131Z,5.13
2022-09-05T00:08:18.767Z,6.50
2022-09-05T00:11:41.753Z,7.18
2022-09-05T00:13:44.804Z,6.50
2022-09-05T00:16:36.210Z,4.70
2022-09-05T00:22:51.303Z,7.97
2022-09-05T00:24:29.932Z,4.90
2022-09-05T00:25:32.793Z,5.70
2022-09-05T00:28:26.561Z,6.32
2022-09-05T00:31:54.344Z,4.80
2022-09-05T00:34:17.941Z,5.95
2022-09-05T00:36:48.244Z,8.50
2022-09-05T00:39:20.988Z,5.18
2022-09-05T00:41:52.992Z,5.38
2022-09-05T00:44:23.771Z,5.72
2022-09-05T00:46:58.790Z,3.92
2022-09-05T00:49:30.967Z,3.92
2022-09-05T00:52:03.444Z,4.32
2022-09-05T00:55:03.608Z,6.78
2022-09-05T00:57:56.388Z,5.88
2022-09-05T01:00:24.940Z,7.80
2022-09-05T01:03:15.593Z,5.30
2022-09-05T01:06:17.395Z,7.18
2022-09-05T01:09:14.923Z,5.30
2022-09-05T01:11:53.476Z,5.95
2022-09-05T01:14:32.539Z,6.28
2022-09-05T01:17:13.743Z,5.85
2022-09-05T01:20:04.633Z,4.30
2022-09-05T01:22:48.656Z,8.52
2022-09-05T01:25:28.282Z,6.78
2022-09-05T01:28:32.968Z,4.95
2022-09-05T01:30:53.552Z,6.55
2022-09-05T01:33:34.194Z,5.82
2022-09-05T01:36:21.911Z,5.90
2022-09-05T01:40:12.121Z,5.38
2022-09-05T01:42:00.361Z,5.78
2022-09-05T01:44:42.783Z,4.35
2022-09-05T01:47:31.171Z,5.03
2022-09-05T01:50:06.076Z,6.43
2022-09-05T01:52:57.444Z,7.05
2022-09-05T01:56:03.993Z,7.18
2022-09-05T01:58:48.779Z,4.75
2022-09-05T02:01:32.837Z,5.28
2022-09-05T02:04:22.412Z,5.20
2022-09-05T02:07:19.221Z,4.30
2022-09-05T02:10:13.183Z,5.20
2022-09-05T02:13:03.105Z,4.93
2022-09-05T02:15:46.488Z,4.40
2022-09-05T02:18:39.153Z,3.58
2022-09-05T02:21:16.924Z,5.65
2022-09-05T02:23:49.180Z,5.13
2022-09-05T02:26:21.855Z,4.85
2022-09-05T02:28:57.096Z,5.93
2022-09-05T02:31:33.301Z,4.55
2022-09-05T02:34:13.653Z,4.85
2022-09-05T02:36:46.395Z,4.00
2022-09-05T02:44:18.240Z,4.80
2022-09-05T02:45:06.000Z,5.50
2022-09-05T02:45:26.857Z,4.43
2022-09-05T02:48:14.943Z,6.00
2022-09-05T02:57:27.556Z,5.25
2022-09-05T02:57:33.865Z,5.78
2022-09-05T02:57:37.224Z,5.38
2022-09-05T02:59:55.096Z,6.53
2022-09-05T03:02:30.656Z,7.72
2022-09-05T03:05:05.163Z,8.30
2022-09-05T03:07:54.838Z,6.35
2022-09-05T03:10:58.783Z,5.20
2022-09-05T03:13:56.342Z,8.43
2022-09-05T03:16:57.978Z,7.68
2022-09-05T03:20:08.496Z,11.32
2022-09-05T03:23:01.791Z,5.75
2022-09-05T03:26:09.018Z,7.22
2022-09-05T03:29:07.060Z,7.75
2022-09-05T03:31:53.204Z,7.07
2022-09-05T03:34:59.170Z,7.53
2022-09-05T03:37:55.958Z,7.68
2022-09-05T03:40:51.251Z,7.40
2022-09-05T03:44:00.727Z,8.18
2022-09-05T03:46:49.127Z,6.57
2022-09-05T03:52:48.516Z,8.07
2022-09-05T03:57:14.380Z,9.13
2022-09-05T03:57:26.494Z,12.65
2022-09-05T03:59:07.509Z,7.00
2022-09-05T04:03:26.989Z,9.35
2022-09-05T04:08:17.304Z,8.70
2022-09-05T04:08:20.474Z,8.75
2022-09-05T04:10:27.998Z,7.80
2022-09-05T04:13:02.622Z,11.63
2022-09-05T04:15:40.313Z,9.00
2022-09-05T04:18:32.705Z,7.93
2022-09-05T04:21:07.575Z,9.60
2022-09-05T04:23:48.534Z,9.95
2022-09-05T04:26:35.594Z,8.75
2022-09-05T04:29:17.026Z,13.40
2022-09-05T04:32:17.602Z,8.05
2022-09-05T04:34:54.686Z,14.63
2022-09-05T04:37:48.178Z,12.30
2022-09-05T04:40:39.110Z,11.67
2022-09-05T04:43:10.430Z,9.80
2022-09-05T04:45:46.575Z,16.67
2022-09-05T04:48:22.186Z,12.83
2022-09-05T04:51:06.981Z,18.40
2022-09-05T04:53:43.321Z,11.73
2022-09-05T04:56:16.195Z,16.97
2022-09-05T05:01:40.725Z,11.70
2022-09-05T05:06:05.145Z,24.83
2022-09-05T05:06:11.747Z,11.18
2022-09-05T05:07:27.411Z,15.37
2022-09-05T05:12:08.853Z,15.23
2022-09-05T05:17:55.480Z,15.63
2022-09-05T05:17:58.203Z,19.00
2022-09-05T05:18:56.521Z,14.00
2022-09-05T05:21:32.509Z,15.67
2022-09-05T05:24:08.940Z,14.67
2022-09-05T05:26:44.127Z,14.23
2022-09-05T05:29:20.393Z,11.60
2022-09-05T05:31:52.184Z,16.00
2022-09-05T05:34:25.196Z,15.23
2022-09-05T05:37:00.786Z,20.87
2022-09-05T05:39:31.071Z,22.33
2022-09-05T05:42:01.860Z,11.53
2022-09-05T05:44:53.805Z,30.60
2022-09-05T05:47:31.296Z,18.27
2022-09-05T05:50:11.417Z,15.37
2022-09-05T05:53:02.629Z,25.10
2022-09-05T05:56:02.657Z,17.93
2022-09-05T05:58:57.480Z,23.07
2022-09-05T06:02:11.039Z,24.20
2022-09-05T06:05:21.478Z,16.37
2022-09-05T06:09:35.083Z,22.30
2022-09-05T06:15:01.325Z,13.90
2022-09-05T06:15:08.911Z,18.20
2022-09-05T06:18:09.074Z,26.33
2022-09-05T06:22:09.356Z,19.60
2022-09-05T06:24:33.651Z,18.77
2022-09-05T06:27:36.831Z,22.83
2022-09-05T06:30:25.840Z,25.37
2022-09-05T06:33:07.761Z,21.50
2022-09-05T06:35:50.743Z,20.60
2022-09-05T06:38:40.326Z,22.77
2022-09-05T06:41:23.023Z,23.67
2022-09-05T06:44:13.652Z,22.27
2022-09-05T06:46:55.444Z,17.97
2022-09-05T06:49:46.326Z,18.58
2022-09-05T06:53:10.935Z,17.70
2022-09-05T06:56:26.102Z,12.68
2022-09-05T06:59:48.072Z,11.38
2022-09-05T07:02:58.039Z,10.88
2022-09-05T07:05:39.680Z,6.65
2022-09-05T07:08:35.214Z,9.80
2022-09-05T07:11:15.804Z,9.23
2022-09-05T07:13:55.856Z,11.60
2022-09-05T07:16:46.805Z,7.47
2022-09-05T07:19:26.954Z,7.80
2022-09-05T07:22:48.037Z,6.28
2022-09-05T07:25:08.684Z,6.05
2022-09-05T07:27:44.407Z,11.18
2022-09-05T07:30:31.808Z,7.55
2022-09-05T07:33:03.002Z,4.43
2022-09-05T07:35:41.695Z,4.28
2022-09-05T07:38:16.112Z,7.80
2022-09-05T07:40:51.761Z,6.32
2022-09-05T07:43:24.586Z,4.47
2022-09-05T07:46:14.009Z,5.40
2022-09-05T07:48:45.818Z,5.45
2022-09-05T07:56:49.251Z,3.17
2022-09-05T07:57:01.477Z,3.45
2022-09-05T08:00:25.791Z,5.88
2022-09-05T08:02:58.822Z,3.42
2022-09-05T08:05:35.034Z,3.22
2022-09-05T08:08:08.980Z,3.85
2022-09-05T08:11:24.877Z,4.40
2022-09-05T08:13:48.543Z,4.85
2022-09-05T08:16:20.489Z,3.50
2022-09-05T08:18:53.121Z,4.32
2022-09-05T08:21:27.358Z,5.80
2022-09-05T08:24:09.124Z,3.00
2022-09-05T08:26:47.465Z,4.13
2022-09-05T08:29:27.466Z,3.47
2022-09-05T08:32:02.642Z,7.07
2022-09-05T08:34:44.703Z,4.30
2022-09-05T08:37:21.540Z,3.00
2022-09-05T08:39:56.852Z,4.18
2022-09-05T08:42:45.619Z,4.68
2022-09-05T08:46:41.095Z,2.75
2022-09-05T08:48:41.600Z,4.22
2022-09-05T08:51:21.136Z,4.13
2022-09-05T08:54:12.136Z,4.18
2022-09-05T08:56:51.119Z,5.70
2022-09-05T08:59:32.875Z,9.15
2022-09-05T09:02:47.356Z,6.07
2022-09-05T09:06:08.511Z,6.32
2022-09-05T09:08:22.596Z,3.28
2022-09-05T09:10:57.416Z,2.70
2022-09-05T09:13:38.837Z,5.28
2022-09-05T09:16:11.033Z,4.40
2022-09-05T09:18:59.183Z,2.75
2022-09-05T09:21:35.252Z,2.75
2022-09-05T09:24:16.778Z,4.63
2022-09-05T09:26:54.652Z,2.67
2022-09-05T09:29:24.507Z,3.55
2022-09-05T09:32:07.711Z,3.15
2022-09-05T09:34:55.611Z,2.75
2022-09-05T09:37:59.408Z,4.65
2022-09-05T09:41:00.551Z,6.05
2022-09-05T09:43:53.107Z,9.40
2022-09-05T09:46:34.095Z,2.63
2022-09-05T09:49:41.159Z,4.38
2022-09-05T09:52:50.118Z,2.90
2022-09-05T09:55:52.164Z,2.92
2022-09-05T09:58:51.101Z,4.30
2022-09-05T10:01:35.910Z,3.55
2022-09-05T10:10:33.151Z,4.30
2022-09-05T10:10:44.576Z,4.18
2022-09-05T10:14:30.700Z,2.67
2022-09-05T10:17:28.222Z,5.63
2022-09-05T10:20:15.434Z,3.20
2022-09-05T10:23:05.882Z,3.08
2022-09-05T10:25:53.139Z,3.90
2022-09-05T10:28:31.180Z,2.50
2022-09-05T10:32:37.689Z,2.78
2022-09-05T10:35:17.696Z,2.88
2022-09-05T10:37:07.239Z,2.83
2022-09-05T10:39:41.753Z,3.03
2022-09-05T10:42:15.430Z,2.88
2022-09-05T10:44:48.131Z,2.53
2022-09-05T10:47:34.891Z,3.10
2022-09-05T10:50:17.556Z,4.10
2022-09-05T10:53:01.220Z,3.05
2022-09-05T10:55:38.564Z,2.20
2022-09-05T10:58:33.839Z,4.35
2022-09-05T11:02:28.498Z,2.70
2022-09-05T11:04:21.170Z,5.68
2022-09-05T11:06:55.621Z,7.07
2022-09-05T11:09:32.730Z,7.75
2022-09-05T11:12:13.329Z,3.70
2022-09-05T11:14:51.570Z,3.10
2022-09-05T11:17:30.873Z,3.58
2022-09-05T11:20:34.414Z,3.33
2022-09-05T11:23:09.730Z,9.57
2022-09-05T11:25:41.194Z,10.45
2022-09-05T11:28:16.830Z,7.47
2022-09-05T11:30:52.754Z,3.75
2022-09-05T11:40:04.427Z,2.33
2022-09-05T11:40:04.531Z,3.20
2022-09-05T11:40:31.053Z,2.30
2022-09-05T11:43:23.752Z,4.80
2022-09-05T11:46:12.231Z,3.20
2022-09-05T11:49:13.392Z,5.00
2022-09-05T11:52:17.336Z,4.07
2022-09-05T11:55:22.794Z,2.50
2022-09-05T11:58:43.723Z,2.70
2022-09-05T12:01:41.543Z,5.18
2022-09-05T12:04:25.651Z,2.83
2022-09-05T12:07:27.040Z,2.25
2022-09-05T12:10:46.361Z,2.30
2022-09-05T12:13:32.241Z,2.63
2022-09-05T12:16:08.567Z,3.50
2022-09-05T12:18:45.925Z,4.38
2022-09-05T12:21:28.788Z,2.75
2022-09-05T12:25:15.660Z,2.42
2022-09-05T12:27:40.234Z,3.05
2022-09-05T12:30:00.048Z,2.22
2022-09-05T12:33:45.373Z,2.53
2022-09-05T12:36:13.112Z,2.40
2022-09-05T12:40:28.808Z,4.88
2022-09-05T12:41:45.125Z,3.03
2022-09-05T12:44:44.901Z,3.00
2022-09-05T12:47:18.705Z,3.65
2022-09-05T12:50:03.205Z,3.13
2022-09-05T12:52:46.067Z,2.53
2022-09-05T12:55:26.120Z,2.88
2022-09-05T13:01:06.557Z,3.88
2022-09-05T13:03:11.562Z,3.03
2022-09-05T13:04:15.953Z,3.75
2022-09-05T13:06:40.993Z,3.92
2022-09-05T13:09:11.506Z,2.58
2022-09-05T13:14:49.744Z,4.75
2022-09-05T13:15:07.605Z,2.40
2022-09-05T13:17:47.210Z,2.80
2022-09-05T13:20:19.982Z,2.40
2022-09-05T13:22:50.560Z,2.40
2022-09-05T13:25:26.971Z,2.40
2022-09-05T13:28:03.890Z,2.75
2022-09-05T13:33:22.670Z,3.47
2022-09-05T13:38:05.634Z,3.28
2022-09-05T13:38:12.079Z,3.17
2022-09-05T13:39:19.143Z,2.45
2022-09-05T13:41:51.870Z,2.47
2022-09-05T13:44:26.209Z,3.40
2022-09-05T13:47:00.857Z,4.25
2022-09-05T13:49:35.179Z,2.53
2022-09-05T13:52:25.897Z,3.63
2022-09-05T13:55:08.593Z,2.85
2022-09-05T13:57:41.879Z,2.78
2022-09-05T14:00:43.351Z,2.90
2022-09-05T14:03:57.250Z,3.58
2022-09-05T14:06:49.354Z,2.75
2022-09-05T14:09:37.325Z,3.05
2022-09-05T14:12:15.487Z,4.05
2022-09-05T14:17:54.702Z,2.25
2022-09-05T14:20:43.943Z,2.30
2022-09-05T14:23:22.314Z,3.00
2022-09-05T14:25:54.829Z,2.55
2022-09-05T14:28:28.898Z,3.10
2022-09-05T14:35:29.306Z,4.30
2022-09-05T14:37:41.131Z,2.30
2022-09-05T14:37:42.984Z,2.42
2022-09-05T14:40:35.955Z,2.60
2022-09-05T14:43:27.061Z,2.30
2022-09-05T14:46:11.701Z,2.92
2022-09-05T14:48:54.920Z,2.20
2022-09-05T14:51:43.129Z,3.25
2022-09-05T14:59:04.244Z,2.17
2022-09-05T15:02:50.545Z,2.50
2022-09-05T15:03:01.906Z,3.20
2022-09-05T15:05:46.651Z,3.00
2022-09-05T15:10:47.329Z,3.25
2022-09-05T15:12:20.655Z,3.00
2022-09-05T15:14:03.505Z,2.45
2022-09-05T15:16:35.593Z,3.05
2022-09-05T15:19:03.566Z,2.65
2022-09-05T15:21:35.344Z,2.28
2022-09-05T15:24:14.808Z,2.88
2022-09-05T15:26:52.765Z,2.75
2022-09-05T15:29:23.482Z,4.65
2022-09-05T15:32:08.966Z,4.03
2022-09-05T15:34:39.060Z,4.65
2022-09-05T15:37:23.843Z,2.65
2022-09-05T15:40:07.699Z,3.22
2022-09-05T15:42:55.083Z,2.60
2022-09-05T15:45:26.728Z,2.53
2022-09-05T15:48:18.740Z,2.38
2022-09-05T15:50:51.219Z,3.45
2022-09-05T15:53:26.423Z,5.05
2022-09-05T15:56:00.936Z,3.95
2022-09-05T15:58:52.383Z,2.78
2022-09-05T16:01:48.657Z,3.63
2022-09-05T16:07:41.165Z,2.70
2022-09-05T16:10:46.270Z,3.03
2022-09-05T16:10:49.079Z,2.63
2022-09-05T16:12:45.809Z,2.58
2022-09-05T16:17:44.784Z,3.45
2022-09-05T16:23:19.109Z,3.05
2022-09-05T16:23:34.732Z,4.03
2022-09-05T16:24:00.786Z,9.88
2022-09-05T16:26:35.538Z,3.97
2022-09-05T16:29:07.919Z,2.67
2022-09-05T16:31:42.685Z,3.08
2022-09-05T16:34:20.624Z,2.63
2022-09-05T16:37:07.790Z,6.53
2022-09-05T16:39:40.049Z,7.93
2022-09-05T16:42:16.120Z,2.63
2022-09-05T16:44:50.714Z,3.92
2022-09-05T16:47:25.599Z,8.98
2022-09-05T16:50:00.075Z,13.50
2022-09-05T16:52:36.859Z,7.07
2022-09-05T16:55:12.814Z,5.47
2022-09-05T16:57:56.592Z,8.55
2022-09-05T17:00:25.786Z,5.72
2022-09-05T17:03:01.568Z,4.20
2022-09-05T17:05:39.122Z,5.93
2022-09-05T17:08:13.795Z,8.10
2022-09-05T17:10:50.739Z,3.67
2022-09-05T17:13:46.285Z,3.63
2022-09-05T17:16:20.714Z,4.38
2022-09-05T17:18:52.698Z,4.47
2022-09-05T17:21:49.888Z,4.95
2022-09-05T17:29:19.398Z,6.35
2022-09-05T17:29:28.741Z,7.03
2022-09-05T17:31:23.720Z,5.18
2022-09-05T17:32:53.543Z,8.02
2022-09-05T17:35:42.457Z,8.48
2022-09-05T17:38:48.582Z,10.77
2022-09-05T17:41:49.517Z,4.22
2022-09-05T17:44:24.504Z,3.70
2022-09-05T17:47:01.706Z,4.38
2022-09-05T17:49:40.474Z,5.45
2022-09-05T17:52:22.995Z,4.65
2022-09-05T17:54:55.804Z,6.18
2022-09-05T17:57:50.186Z,4.22
2022-09-05T18:01:00.254Z,7.93
2022-09-05T18:04:16.035Z,4.07
2022-09-05T18:06:59.153Z,5.38
2022-09-05T18:10:12.822Z,7.65
2022-09-05T18:13:14.056Z,2.92
2022-09-05T18:16:11.737Z,8.13
2022-09-05T18:18:58.912Z,13.25
2022-09-05T18:21:48.422Z,5.07
2022-09-05T18:30:12.219Z,5.20
2022-09-05T18:32:53.315Z,3.30
2022-09-05T18:35:37.298Z,6.53
2022-09-05T18:38:34.520Z,5.25
2022-09-05T18:41:19.445Z,3.63
2022-09-05T18:44:12.531Z,6.32
2022-09-05T18:46:46.038Z,4.10
2022-09-05T18:50:23.737Z,5.82
2022-09-05T18:52:23.570Z,6.63
2022-09-05T18:55:30.062Z,7.55
2022-09-05T18:57:51.407Z,6.95
2022-09-05T19:00:25.062Z,7.68
2022-09-05T19:03:02.311Z,5.20
2022-09-05T19:05:42.063Z,4.10
2022-09-05T19:08:29.039Z,7.30
2022-09-05T19:11:26.939Z,7.20
2022-09-05T19:14:04.850Z,7.13
2022-09-05T19:16:47.844Z,10.43
2022-09-05T19:19:18.481Z,11.48
2022-09-05T19:21:57.171Z,7.63
2022-09-05T19:24:45.736Z,5.97
2022-09-05T19:30:37.968Z,11.38
2022-09-05T19:36:50.137Z,10.48
2022-09-05T19:37:10.672Z,7.95
2022-09-05T19:37:25.520Z,11.30
2022-09-05T19:40:46.706Z,8.32
2022-09-05T19:47:28.431Z,11.65
2022-09-05T19:47:43.035Z,6.18
2022-09-05T19:47:55.729Z,4.57
2022-09-05T19:50:21.180Z,8.45
2022-09-05T19:52:52.924Z,5.65
2022-09-05T19:55:24.791Z,11.52
2022-09-05T19:58:18.907Z,12.90
2022-09-05T20:01:01.052Z,8.07
2022-09-05T20:03:31.799Z,10.68
2022-09-05T20:06:26.650Z,12.38
2022-09-05T20:09:10.659Z,11.50
2022-09-05T20:11:45.680Z,11.20
2022-09-05T20:14:23.668Z,8.32
2022-09-05T20:16:58.426Z,11.00
2022-09-05T20:19:31.536Z,10.50
2022-09-05T20:22:18.709Z,12.20
2022-09-05T20:24:50.991Z,8.23
2022-09-05T20:27:20.413Z,8.82
2022-09-05T20:29:59.039Z,7.75
2022-09-05T20:32:38.698Z,11.27
2022-09-05T20:37:14.194Z,8.10
2022-09-05T20:43:22.837Z,18.98
2022-09-05T20:43:27.334Z,9.65
2022-09-05T20:43:57.841Z,11.45
2022-09-05T20:49:52.575Z,7.38
2022-09-05T20:54:13.816Z,13.57
2022-09-05T20:54:19.412Z,8.70
2022-09-05T20:55:39.403Z,9.25
2022-09-05T20:58:09.520Z,8.40
2022-09-05T21:00:42.070Z,14.07
2022-09-05T21:03:34.765Z,10.80
2022-09-05T21:06:12.812Z,7.93
2022-09-05T21:08:40.886Z,9.77
2022-09-05T21:11:09.544Z,11.82
2022-09-05T21:13:51.993Z,10.48
2022-09-05T21:16:27.597Z,8.68
2022-09-05T21:18:55.773Z,9.90
2022-09-05T21:21:28.582Z,8.95
2022-09-05T21:24:17.766Z,10.82
2022-09-05T21:26:50.389Z,7.40
2022-09-05T21:29:32.261Z,12.50
2022-09-05T21:32:10.594Z,7.18
2022-09-05T21:34:45.346Z,7.40
2022-09-05T21:37:15.623Z,10.30
2022-09-05T21:39:58.724Z,8.07
2022-09-05T21:46:42.881Z,6.63
2022-09-05T21:47:41.109Z,11.80
2022-09-05T21:48:08.615Z,9.18
2022-09-05T21:50:42.430Z,7.78
2022-09-05T21:56:01.127Z,8.75
2022-09-05T21:59:16.565Z,7.85
2022-09-05T21:59:29.147Z,8.32
2022-09-05T22:01:52.533Z,8.73
2022-09-05T22:04:22.805Z,9.02
2022-09-05T22:06:53.109Z,8.15
2022-09-05T22:09:22.312Z,10.02
2022-09-05T22:11:51.501Z,7.90
2022-09-05T22:14:20.162Z,9.07
2022-09-05T22:16:50.376Z,8.27
2022-09-05T22:19:26.233Z,7.57
2022-09-05T22:22:15.687Z,8.32
2022-09-05T22:24:50.367Z,7.60
2022-09-05T22:27:19.871Z,10.70
2022-09-05T22:29:50.285Z,8.35
2022-09-05T22:32:34.567Z,13.60
2022-09-05T22:35:15.909Z,7.10
2022-09-05T22:38:00.741Z,7.40
2022-09-05T22:40:30.049Z,7.40
2022-09-05T22:42:58.993Z,8.40
2022-09-05T22:45:27.395Z,7.82
2022-09-05T22:47:55.263Z,7.40
2022-09-05T22:50:25.394Z,8.90
2022-09-05T22:52:53.492Z,9.65
2022-09-05T22:55:21.575Z,7.05
2022-09-05T22:57:49.444Z,9.25
2022-09-05T23:00:17.397Z,10.05
2022-09-05T23:02:49.007Z,8.90
2022-09-05T23:05:19.531Z,6.80
2022-09-05T23:07:48.778Z,6.82
2022-09-05T23:10:17.048Z,6.72
2022-09-05T23:12:44.931Z,7.57
2022-09-05T23:15:12.793Z,5.93
2022-09-05T23:17:40.631Z,8.60
2022-09-05T23:20:10.455Z,7.53
2022-09-05T23:22:38.696Z,7.70
2022-09-05T23:25:08.658Z,5.47
2022-09-05T23:27:37.161Z,5.95
2022-09-05T23:30:07.065Z,10.65
2022-09-05T23:32:35.196Z,7.70
2022-09-05T23:35:03.215Z,8.02
2022-09-05T23:37:31.033Z,8.35
2022-09-05T23:39:58.891Z,9.82
2022-09-05T23:42:28.247Z,9.35
2022-09-05T23:44:56.118Z,10.20
2022-09-05T23:47:24.085Z,11.10
2022-09-05T23:49:51.913Z,11.02
2022-09-05T23:52:19.731Z,8.98
2022-09-05T23:54:47.554Z,11.30
2022-09-05T23:57:15.504Z,8.88
2022-09-05T23:59:44.672Z,9.40
